Airfield :







YOU CAN JOIN US ON...

 
LOGIN :

Register | Disclaimer

   EN    FR    IT 

 









Legend :    VFR   Marginal VFR   IFR   Intensive IFR   Very Intensive IFR
Visi :
Ceiling :
>= 8 km
>= 3000ft
5 to 8 km
1000 to 3000 ft
1500m to 5 km
500 to 1000 ft
800 to 1500m
200 to 500 ft
< 800m
< 200 ft
Symbols :   Thunderstorms  Fog  Heavy snow  Heavy precipitations  Wind > 20 kt







- Airport Elevation : 352 ft


KAUG - Augusta State

CURRENT METAR :
  • 160753Z AUTO 19003KT 10SM CLR 16/13 A2981 RMK AO2 SLP094 T01560128

EXPIRED METARs :
  • 160653Z AUTO 18004KT 10SM FEW090 FEW120 17/13 A2980 RMK AO2 RAB14E31 SLP090 P0000 T01670128
  • 160553Z AUTO 21005KT 10SM BKN110 17/12 A2979 RMK AO2 SLP085 T01720122 10194 20172 56011

TAF KAUG
Valid from the 16 at 06:00 until the 17 at 06:00 UTC


160520Z 1606/1706 19009KT P6SM SCT050 BKN100
FM160800 23005KT P6SM VCSH OVC050
FM170500 34003KT 2SM BR SCT003 OVC015
KZBW FIR / North America



MET'MAP, your aeronautical weather chart ! - Copyright ORBIFLY December 2007 - Disclaimer

ORBIFLY MET'MAP TEAM :

Programming & Development : Alexandra Zaïnal
Concept & Development : Baudouin d'Aumeries
Co-Development & Prog : Marc-Olivier Méhu
Technical & hardware support : Manuel Goepfert

Contact : metmap@orbifly.com




SOURCES & CREDITS :

   NOAA